Mostar, Bosnia and Herzegovina
Current Conditions -  °F | °C
As of 12:00 PM on Friday 24 Oct 2014 (Local Time) from LQMO Reporting Station
Few Clouds Few Clouds  
Wind Chill: 61°   Ceiling: Unl
Heat Index: 61°   Visibility: 6mi
Dew Point: 37°   Wind: 6mph
Humidity: 42%   Direction: 160°SSE
Pressure: 29.8"   Gusts: NA
Location:  43.34°N, 17.81°E
Report Text: LQMO 241000Z 16005KT 120V200 9999 FEW045 16/03 Q1009
Loading
Personal Weather Stations






























Interactive Weather Map
Tropical Storm Tracking
New forecast layout! Learn more

10-Day Weather Forecast

Advertisements
Track Severe Weather on mobile